createdAt,value
2019-05-02T00:01:27.075Z,22.97
2019-05-02T00:03:35.952Z,24.83
2019-05-02T00:05:38.006Z,31.10
2019-05-02T00:07:43.641Z,29.50
2019-05-02T00:09:50.131Z,28.83
2019-05-02T00:11:58.802Z,29.53
2019-05-02T00:13:59.874Z,25.53
2019-05-02T00:16:03.871Z,24.93
2019-05-02T00:18:08.188Z,28.87
2019-05-02T00:20:12.907Z,26.07
2019-05-02T00:22:18.463Z,25.83
2019-05-02T00:24:22.867Z,25.20
2019-05-02T00:26:26.873Z,24.00
2019-05-02T00:28:50.541Z,27.27
2019-05-02T00:30:54.402Z,25.17
2019-05-02T00:32:59.521Z,27.50
2019-05-02T00:35:04.093Z,28.60
2019-05-02T00:37:07.957Z,24.63
2019-05-02T00:39:13.864Z,25.90
2019-05-02T00:41:17.364Z,29.90
2019-05-02T00:43:21.236Z,24.90
2019-05-02T00:45:25.979Z,24.17
2019-05-02T00:47:49.804Z,22.30
2019-05-02T00:49:53.809Z,27.00
2019-05-02T00:52:01.396Z,32.27
2019-05-02T00:54:03.228Z,27.13
2019-05-02T00:56:09.006Z,27.70
2019-05-02T00:58:12.669Z,28.13
2019-05-02T01:00:18.414Z,27.93
2019-05-02T01:02:40.462Z,27.20
2019-05-02T01:04:43.291Z,25.17
2019-05-02T01:06:49.252Z,25.80
2019-05-02T01:08:52.935Z,25.60
2019-05-02T01:10:58.026Z,31.03
2019-05-02T01:13:02.184Z,30.10
2019-05-02T01:15:08.294Z,25.82
2019-05-02T01:17:13.173Z,25.27
2019-05-02T01:19:18.195Z,26.43
2019-05-02T01:21:22.411Z,31.93
2019-05-02T01:23:27.736Z,26.50
2019-05-02T01:25:32.269Z,28.50
2019-05-02T01:27:41.087Z,28.10
2019-05-02T01:29:51.031Z,26.73
2019-05-02T01:32:12.042Z,22.53
2019-05-02T01:34:32.835Z,24.13
2019-05-02T01:36:54.860Z,24.07
2019-05-02T01:39:02.866Z,27.80
2019-05-02T01:41:04.521Z,25.03
2019-05-02T01:43:23.975Z,28.83
2019-05-02T01:45:28.395Z,29.17
2019-05-02T01:47:36.525Z,26.73
2019-05-02T01:49:40.571Z,27.73
2019-05-02T01:51:47.414Z,23.57
2019-05-02T01:53:49.969Z,26.47
2019-05-02T01:55:57.727Z,21.27
2019-05-02T01:57:59.499Z,27.57
2019-05-02T02:00:09.436Z,28.10
2019-05-02T02:02:11.022Z,30.07
2019-05-02T02:04:16.236Z,25.37
2019-05-02T02:06:20.647Z,29.30
2019-05-02T02:08:32.632Z,26.60
2019-05-02T02:10:36.338Z,25.87
2019-05-02T02:12:42.932Z,21.10
2019-05-02T02:14:48.055Z,24.20
2019-05-02T02:16:51.837Z,23.47
2019-05-02T02:18:59.089Z,26.13
2019-05-02T02:21:25.633Z,23.40
2019-05-02T02:23:44.906Z,24.83
2019-05-02T02:26:06.718Z,23.73
2019-05-02T02:28:09.521Z,26.40
2019-05-02T02:30:17.709Z,24.07
2019-05-02T02:32:26.608Z,24.27
2019-05-02T02:34:29.400Z,26.33
2019-05-02T02:36:33.909Z,24.37
2019-05-02T02:38:36.368Z,24.87
2019-05-02T02:40:41.079Z,26.23
2019-05-02T02:42:46.014Z,27.30
2019-05-02T02:44:51.891Z,27.00
2019-05-02T02:46:56.185Z,25.43
2019-05-02T02:49:00.443Z,27.17
2019-05-02T02:51:05.124Z,28.60
2019-05-02T02:53:09.273Z,23.17
2019-05-02T02:55:16.072Z,26.33
2019-05-02T02:57:25.655Z,23.40
2019-05-02T02:59:46.444Z,22.93
2019-05-02T03:01:50.332Z,25.90
2019-05-02T03:03:54.258Z,25.87
2019-05-02T03:05:58.681Z,26.83
2019-05-02T03:08:05.345Z,28.00
2019-05-02T03:10:10.934Z,26.50
2019-05-02T03:12:22.242Z,26.47
2019-05-02T03:14:27.721Z,29.83
2019-05-02T03:16:33.389Z,28.00
2019-05-02T03:18:41.062Z,27.57
2019-05-02T03:20:42.810Z,28.07
2019-05-02T03:22:46.652Z,31.37
2019-05-02T03:24:50.568Z,28.57
2019-05-02T03:26:55.817Z,29.13
2019-05-02T03:29:00.930Z,28.17
2019-05-02T03:31:21.887Z,25.73
2019-05-02T03:33:12.368Z,25.63
2019-05-02T03:35:18.622Z,27.50
2019-05-02T03:37:22.562Z,27.03
2019-05-02T03:39:26.461Z,28.70
2019-05-02T03:41:30.336Z,27.50
2019-05-02T03:43:34.191Z,31.77
2019-05-02T03:45:42.812Z,25.73
2019-05-02T03:47:46.474Z,29.00
2019-05-02T03:49:52.242Z,30.07
2019-05-02T03:52:01.614Z,28.47
2019-05-02T03:54:07.714Z,24.73
2019-05-02T03:56:11.509Z,30.27
2019-05-02T03:58:14.023Z,30.57
2019-05-02T04:00:21.239Z,27.27
2019-05-02T04:02:24.253Z,30.80
2019-05-02T04:04:29.726Z,31.27
2019-05-02T04:06:33.637Z,26.40
2019-05-02T04:08:38.300Z,29.10
2019-05-02T04:10:52.733Z,30.37
2019-05-02T04:12:58.501Z,30.17
2019-05-02T04:14:59.138Z,30.33
2019-05-02T04:17:03.257Z,31.03
2019-05-02T04:19:07.254Z,27.07
2019-05-02T04:21:11.569Z,30.73
2019-05-02T04:23:21.428Z,30.60
2019-05-02T04:25:28.134Z,33.97
2019-05-02T04:27:34.081Z,37.97
2019-05-02T04:29:36.108Z,31.17
2019-05-02T04:31:40.200Z,31.50
2019-05-02T04:33:44.310Z,34.50
2019-05-02T04:35:48.419Z,28.50
2019-05-02T04:37:52.630Z,31.43
2019-05-02T04:39:59.164Z,31.40
2019-05-02T04:42:11.300Z,32.73
2019-05-02T04:44:09.076Z,30.60
2019-05-02T04:46:22.078Z,27.50
2019-05-02T04:48:19.214Z,31.17
2019-05-02T04:50:25.105Z,28.60
2019-05-02T04:52:29.078Z,28.27
2019-05-02T04:54:33.179Z,35.50
2019-05-02T04:56:42.165Z,31.90
2019-05-02T04:58:42.836Z,29.73
2019-05-02T05:00:53.481Z,33.57
2019-05-02T05:02:53.285Z,27.83
2019-05-02T05:04:58.216Z,27.13
2019-05-02T05:07:02.542Z,35.33
2019-05-02T05:09:12.690Z,27.63
2019-05-02T05:11:13.876Z,31.57
2019-05-02T05:13:22.802Z,32.07
2019-05-02T05:15:37.097Z,28.57
2019-05-02T05:17:34.069Z,32.10
2019-05-02T05:19:37.358Z,30.37
2019-05-02T05:21:43.288Z,30.33
2019-05-02T05:24:01.369Z,32.93
2019-05-02T05:26:04.867Z,29.93
2019-05-02T05:28:09.263Z,31.90
2019-05-02T05:30:15.955Z,25.33
2019-05-02T05:32:19.081Z,31.50
2019-05-02T05:34:27.856Z,29.53
2019-05-02T05:36:32.521Z,32.70
2019-05-02T05:38:36.027Z,34.23
2019-05-02T05:40:39.922Z,36.93
2019-05-02T05:42:44.136Z,35.67
2019-05-02T05:44:48.368Z,39.17
2019-05-02T05:46:52.864Z,37.63
2019-05-02T05:48:58.255Z,37.63
2019-05-02T05:51:02.616Z,39.50
2019-05-02T05:53:07.965Z,39.50
2019-05-02T05:55:12.715Z,39.40
2019-05-02T05:57:21.128Z,34.07
2019-05-02T05:59:28.016Z,47.37
2019-05-02T06:01:34.105Z,41.40
2019-05-02T06:03:41.505Z,42.70
2019-05-02T06:05:41.020Z,37.03
2019-05-02T06:07:47.309Z,38.00
2019-05-02T06:09:51.054Z,37.10
2019-05-02T06:11:55.578Z,39.10
2019-05-02T06:14:00.917Z,42.63
2019-05-02T06:16:05.151Z,38.90
2019-05-02T06:18:09.238Z,37.43
2019-05-02T06:20:13.700Z,45.73
2019-05-02T06:22:24.469Z,38.03
2019-05-02T06:24:23.302Z,36.33
2019-05-02T06:26:27.414Z,42.20
2019-05-02T06:28:36.086Z,37.77
2019-05-02T06:30:37.383Z,40.57
2019-05-02T06:32:41.274Z,27.10
2019-05-02T06:34:47.536Z,35.13
2019-05-02T06:36:51.031Z,39.43
2019-05-02T06:38:56.728Z,40.97
2019-05-02T06:41:00.678Z,43.53
2019-05-02T06:43:09.799Z,39.63
2019-05-02T06:45:11.254Z,45.83
2019-05-02T06:47:15.468Z,39.93
2019-05-02T06:49:24.186Z,42.73
2019-05-02T06:51:25.216Z,43.60
2019-05-02T06:53:29.426Z,39.10
2019-05-02T06:55:36.515Z,46.27
2019-05-02T06:57:39.077Z,46.13
2019-05-02T06:59:43.288Z,38.80
2019-05-02T07:01:47.300Z,38.53
2019-05-02T07:03:51.300Z,42.97
2019-05-02T07:05:58.749Z,40.27
2019-05-02T07:08:00.862Z,30.40
2019-05-02T07:10:08.037Z,36.57
2019-05-02T07:12:14.727Z,41.90
2019-05-02T07:14:18.587Z,41.13
2019-05-02T07:16:37.809Z,42.87
2019-05-02T07:18:35.276Z,25.87
2019-05-02T07:20:40.585Z,42.23
2019-05-02T07:22:45.706Z,40.87
2019-05-02T07:24:50.415Z,42.23
2019-05-02T07:26:56.815Z,28.73
2019-05-02T07:29:00.170Z,40.37
2019-05-02T07:31:06.491Z,37.63
2019-05-02T07:33:09.918Z,43.17
2019-05-02T07:35:14.539Z,40.77
2019-05-02T07:37:18.751Z,40.80
2019-05-02T07:39:22.744Z,45.80
2019-05-02T07:41:29.029Z,43.33
2019-05-02T07:43:32.716Z,45.83
2019-05-02T07:45:40.227Z,48.83
2019-05-02T07:47:42.555Z,45.17
2019-05-02T07:49:46.781Z,46.23
2019-05-02T07:51:52.325Z,45.27
2019-05-02T07:53:56.431Z,51.30
2019-05-02T07:56:00.541Z,45.03
2019-05-02T07:58:06.996Z,49.23
2019-05-02T08:00:11.964Z,43.43
2019-05-02T08:02:20.250Z,44.30
2019-05-02T08:04:21.693Z,49.60
2019-05-02T08:06:34.917Z,43.97
2019-05-02T08:08:31.885Z,45.63
2019-05-02T08:10:35.956Z,47.53
2019-05-02T08:12:40.171Z,40.40
2019-05-02T08:14:44.177Z,44.07
2019-05-02T08:16:48.390Z,42.70
2019-05-02T08:18:52.497Z,30.90
2019-05-02T08:20:57.420Z,46.53
2019-05-02T08:23:01.941Z,44.50
2019-05-02T08:25:10.404Z,51.25
2019-05-02T08:27:24.082Z,50.70
2019-05-02T08:29:28.908Z,46.80
2019-05-02T08:31:33.729Z,52.93
2019-05-02T08:33:37.950Z,50.57
2019-05-02T08:35:42.055Z,48.00
2019-05-02T08:37:46.161Z,40.70
2019-05-02T08:39:50.066Z,44.13
2019-05-02T08:41:56.512Z,43.23
2019-05-02T08:43:59.823Z,46.97
2019-05-02T08:46:04.024Z,42.33
2019-05-02T08:48:08.243Z,38.93
2019-05-02T08:50:13.887Z,40.70
2019-05-02T08:52:18.098Z,40.90
2019-05-02T08:54:22.208Z,37.00
2019-05-02T08:56:26.111Z,42.50
2019-05-02T08:58:30.219Z,40.60
2019-05-02T09:00:37.586Z,36.87
2019-05-02T09:02:41.500Z,40.93
2019-05-02T09:04:57.651Z,37.87
2019-05-02T09:06:53.234Z,41.93
2019-05-02T09:08:56.600Z,47.17
2019-05-02T09:11:00.814Z,30.63
2019-05-02T09:13:04.920Z,43.80
2019-05-02T09:15:09.019Z,41.87
2019-05-02T09:17:16.416Z,43.10
2019-05-02T09:19:21.442Z,41.30
2019-05-02T09:21:26.848Z,32.53
2019-05-02T09:23:33.240Z,40.60
2019-05-02T09:25:35.717Z,42.23
2019-05-02T09:27:41.845Z,37.50
2019-05-02T09:29:45.987Z,41.50
2019-05-02T09:31:52.489Z,45.17
2019-05-02T09:33:55.940Z,40.97
2019-05-02T09:35:59.856Z,42.03
2019-05-02T09:38:03.950Z,35.73
2019-05-02T09:40:14.993Z,41.97
2019-05-02T09:42:16.367Z,37.10
2019-05-02T09:44:19.758Z,39.60
2019-05-02T09:46:23.870Z,38.00
2019-05-02T09:48:27.976Z,43.47
2019-05-02T09:50:34.367Z,37.67
2019-05-02T09:52:39.553Z,38.43
2019-05-02T09:54:46.089Z,35.20
2019-05-02T09:56:48.917Z,38.43
2019-05-02T09:58:55.063Z,36.60
2019-05-02T10:01:09.423Z,34.67
2019-05-02T10:03:13.840Z,30.50
2019-05-02T10:05:18.151Z,38.00
2019-05-02T10:07:22.331Z,34.70
2019-05-02T10:09:27.310Z,42.23
2019-05-02T10:11:32.286Z,36.47
2019-05-02T10:13:36.532Z,40.70
2019-05-02T10:15:42.098Z,45.73
2019-05-02T10:17:46.873Z,38.47
2019-05-02T10:19:54.924Z,39.57
2019-05-02T10:21:56.757Z,30.10
2019-05-02T10:24:01.727Z,39.10
2019-05-02T10:26:06.306Z,36.70
2019-05-02T10:28:12.799Z,38.20
2019-05-02T10:30:16.417Z,42.97
2019-05-02T10:32:22.551Z,40.80
2019-05-02T10:34:26.006Z,36.67
2019-05-02T10:36:32.389Z,40.57
2019-05-02T10:38:35.976Z,39.03
2019-05-02T10:40:39.881Z,37.20
2019-05-02T10:42:44.090Z,34.17
2019-05-02T10:44:48.302Z,41.37
2019-05-02T10:46:59.273Z,41.93
2019-05-02T10:49:04.912Z,46.50
2019-05-02T10:51:13.322Z,41.93
2019-05-02T10:53:17.430Z,38.20
2019-05-02T10:55:22.301Z,34.90
2019-05-02T10:57:27.390Z,36.87
2019-05-02T10:59:32.763Z,40.90
2019-05-02T11:01:38.679Z,38.07
2019-05-02T11:03:47.437Z,38.63
2019-05-02T11:05:52.811Z,41.20
2019-05-02T11:08:04.706Z,36.80
2019-05-02T11:10:06.674Z,43.63
2019-05-02T11:12:11.778Z,43.17
2019-05-02T11:14:17.373Z,41.47
2019-05-02T11:16:39.491Z,41.87
2019-05-02T11:18:56.819Z,36.60
2019-05-02T11:21:04.456Z,35.60
2019-05-02T11:23:06.357Z,38.53
2019-05-02T11:25:12.061Z,45.57
2019-05-02T11:27:16.315Z,45.97
2019-05-02T11:29:20.423Z,31.90
2019-05-02T11:31:24.734Z,47.00
2019-05-02T11:33:28.769Z,43.07
2019-05-02T11:35:32.810Z,40.13
2019-05-02T11:37:37.267Z,43.47
2019-05-02T11:39:46.751Z,38.50
2019-05-02T11:41:46.818Z,42.63
2019-05-02T11:43:54.051Z,39.17
2019-05-02T11:46:02.578Z,37.97
2019-05-02T11:48:09.111Z,40.87
2019-05-02T11:50:07.925Z,41.60
2019-05-02T11:52:12.073Z,36.87
2019-05-02T11:54:16.281Z,37.97
2019-05-02T11:56:22.046Z,42.80
2019-05-02T11:58:26.041Z,35.53
2019-05-02T12:00:32.218Z,47.73
2019-05-02T12:02:37.430Z,38.40
2019-05-02T12:04:41.849Z,39.23
2019-05-02T12:06:49.932Z,37.80
2019-05-02T12:08:52.554Z,40.67
2019-05-02T12:10:57.142Z,42.57
2019-05-02T12:13:02.168Z,37.43
2019-05-02T12:15:08.325Z,38.42
2019-05-02T12:17:12.434Z,37.17
2019-05-02T12:19:16.429Z,43.07
2019-05-02T12:21:22.619Z,38.67
2019-05-02T12:23:26.091Z,37.87
2019-05-02T12:25:30.206Z,34.70
2019-05-02T12:27:34.311Z,32.57
2019-05-02T12:29:38.416Z,31.97
2019-05-02T12:31:42.753Z,39.57
2019-05-02T12:33:47.044Z,38.40
2019-05-02T12:35:52.481Z,38.10
2019-05-02T12:37:56.901Z,28.83
2019-05-02T12:40:02.667Z,29.03
2019-05-02T12:42:06.726Z,37.33
2019-05-02T12:44:11.739Z,32.80
2019-05-02T12:46:16.101Z,29.77
2019-05-02T12:48:21.778Z,35.90
2019-05-02T12:50:25.751Z,36.17
2019-05-02T12:52:31.963Z,35.00
2019-05-02T12:54:35.401Z,35.87
2019-05-02T12:56:39.511Z,37.53
2019-05-02T12:58:43.627Z,28.27
2019-05-02T13:00:47.524Z,31.20
2019-05-02T13:02:53.171Z,31.00
2019-05-02T13:04:57.073Z,32.63
2019-05-02T13:07:02.174Z,31.07
2019-05-02T13:09:09.281Z,24.50
2019-05-02T13:11:14.823Z,25.20
2019-05-02T13:13:19.042Z,33.23
2019-05-02T13:15:23.261Z,25.23
2019-05-02T13:17:29.416Z,28.23
2019-05-02T13:19:40.226Z,27.63
2019-05-02T13:21:59.335Z,30.37
2019-05-02T13:24:07.249Z,22.63
2019-05-02T13:26:19.678Z,24.80
2019-05-02T13:28:22.351Z,21.93
2019-05-02T13:30:46.219Z,25.17
2019-05-02T13:32:52.851Z,30.60
2019-05-02T13:34:57.225Z,26.20
2019-05-02T13:37:02.926Z,29.30
2019-05-02T13:39:12.388Z,23.40
2019-05-02T13:41:16.961Z,26.97
2019-05-02T13:43:22.711Z,30.07
2019-05-02T13:45:28.352Z,27.63
2019-05-02T13:47:32.622Z,27.57
2019-05-02T13:49:36.778Z,27.23
2019-05-02T13:51:42.490Z,29.70
2019-05-02T13:53:52.133Z,30.60
2019-05-02T13:56:13.983Z,25.77
2019-05-02T13:58:21.502Z,23.00
2019-05-02T14:00:27.837Z,24.83
2019-05-02T14:02:43.411Z,20.83
2019-05-02T14:04:47.317Z,20.50
2019-05-02T14:06:52.869Z,20.53
2019-05-02T14:09:02.902Z,20.40
2019-05-02T14:11:08.863Z,18.57
2019-05-02T14:13:12.969Z,15.63
2019-05-02T14:15:18.937Z,15.47
2019-05-02T14:17:23.066Z,16.77
2019-05-02T14:19:46.589Z,13.83
2019-05-02T14:21:51.854Z,15.53
2019-05-02T14:23:56.036Z,13.03
2019-05-02T14:26:01.905Z,12.33
2019-05-02T14:28:05.790Z,12.33
2019-05-02T14:30:12.008Z,8.83
2019-05-02T14:32:23.689Z,7.43
2019-05-02T14:34:28.459Z,10.93
2019-05-02T14:36:32.599Z,7.90
2019-05-02T14:38:36.880Z,10.43
2019-05-02T14:40:43.857Z,6.83
2019-05-02T14:42:47.861Z,8.77
2019-05-02T14:45:05.611Z,10.03
2019-05-02T14:46:57.616Z,11.57
2019-05-02T14:49:02.786Z,10.30
2019-05-02T14:51:07.062Z,9.53
2019-05-02T14:53:12.018Z,9.73
2019-05-02T14:55:16.994Z,10.10
2019-05-02T14:57:27.013Z,10.37
2019-05-02T14:59:28.991Z,10.80
2019-05-02T15:01:33.443Z,12.53
2019-05-02T15:03:37.654Z,12.70
2019-05-02T15:05:42.436Z,13.77
2019-05-02T15:07:46.692Z,14.23
2019-05-02T15:09:52.390Z,12.03
2019-05-02T15:11:59.126Z,13.00
2019-05-02T15:14:03.205Z,16.80
2019-05-02T15:16:12.339Z,12.97
2019-05-02T15:18:17.404Z,12.23
2019-05-02T15:20:18.510Z,14.50
2019-05-02T15:22:22.895Z,10.20
2019-05-02T15:24:27.758Z,13.00
2019-05-02T15:26:34.979Z,8.30
2019-05-02T15:28:39.375Z,9.60
2019-05-02T15:30:49.400Z,8.77
2019-05-02T15:33:02.980Z,10.27
2019-05-02T15:35:12.949Z,12.07
2019-05-02T15:37:21.419Z,10.97
2019-05-02T15:41:28.474Z,8.00
2019-05-02T15:43:32.479Z,11.60
2019-05-02T15:45:36.600Z,12.33
2019-05-02T15:47:45.165Z,9.80
2019-05-02T15:49:50.038Z,10.73
2019-05-02T15:51:53.208Z,7.33
2019-05-02T15:54:08.737Z,5.43
2019-05-02T15:56:18.760Z,6.47
2019-05-02T15:58:22.413Z,6.33
2019-05-02T16:00:25.773Z,11.50
2019-05-02T16:02:32.105Z,6.20
2019-05-02T16:04:37.839Z,7.23
2019-05-02T16:06:41.976Z,6.70
2019-05-02T16:08:49.336Z,8.27
2019-05-02T16:10:53.597Z,6.47
2019-05-02T16:12:59.554Z,7.23
2019-05-02T16:15:08.425Z,5.30
2019-05-02T16:17:09.247Z,8.33
2019-05-02T16:19:14.602Z,8.20
2019-05-02T16:21:27.051Z,10.93
2019-05-02T16:23:32.769Z,5.90
2019-05-02T16:25:32.054Z,7.00
2019-05-02T16:27:44.382Z,7.07
2019-05-02T16:29:48.746Z,5.10
2019-05-02T16:31:54.969Z,6.40
2019-05-02T16:34:00.025Z,6.93
2019-05-02T16:36:04.148Z,7.07
2019-05-02T16:38:08.150Z,6.73
2019-05-02T16:40:13.086Z,3.97
2019-05-02T16:42:17.090Z,8.37
2019-05-02T16:44:22.331Z,4.67
2019-05-02T16:46:27.657Z,8.13
2019-05-02T16:48:37.388Z,6.13
2019-05-02T16:50:37.208Z,4.23
2019-05-02T16:52:45.525Z,6.03
2019-05-02T16:54:46.855Z,2.80
2019-05-02T16:56:52.131Z,4.97
2019-05-02T16:58:56.408Z,6.60
2019-05-02T17:01:00.518Z,11.13
2019-05-02T17:03:04.932Z,3.63
2019-05-02T17:05:10.201Z,3.83
2019-05-02T17:07:16.836Z,2.30
2019-05-02T17:09:24.048Z,2.50
2019-05-02T17:11:35.930Z,4.80
2019-05-02T17:13:41.814Z,3.47
2019-05-02T17:15:45.965Z,5.13
2019-05-02T17:17:50.074Z,4.83
2019-05-02T17:19:53.965Z,3.40
2019-05-02T17:21:58.090Z,4.03
2019-05-02T17:24:02.569Z,5.10
2019-05-02T17:26:06.917Z,4.43
2019-05-02T17:28:13.213Z,2.43
2019-05-02T17:30:17.183Z,2.63
2019-05-02T17:32:22.381Z,3.07
2019-05-02T17:34:30.643Z,5.20
2019-05-02T17:36:32.551Z,5.47
2019-05-02T17:38:36.692Z,4.07
2019-05-02T17:40:42.159Z,3.07
2019-05-02T17:42:46.547Z,2.47
2019-05-02T17:44:51.844Z,4.57
2019-05-02T17:46:58.091Z,6.47
2019-05-02T17:49:02.561Z,3.63
2019-05-02T17:51:12.380Z,4.63
2019-05-02T17:53:16.308Z,3.90
2019-05-02T17:55:21.500Z,3.93
2019-05-02T17:57:28.550Z,4.57
2019-05-02T17:59:34.644Z,3.97
2019-05-02T18:01:38.273Z,3.00
2019-05-02T18:03:42.638Z,5.03
2019-05-02T18:05:46.999Z,4.90
2019-05-02T18:07:52.589Z,3.33
2019-05-02T18:09:56.755Z,5.97
2019-05-02T18:12:01.567Z,4.07
2019-05-02T18:14:18.620Z,7.37
2019-05-02T18:16:15.148Z,3.17
2019-05-02T18:18:17.189Z,4.33
2019-05-02T18:20:21.939Z,2.93
2019-05-02T18:22:26.347Z,5.87
2019-05-02T18:24:32.495Z,5.87
2019-05-02T18:26:36.122Z,4.33
2019-05-02T18:28:46.904Z,5.43
2019-05-02T18:30:45.710Z,7.03
2019-05-02T18:32:49.935Z,6.87
2019-05-02T18:34:56.790Z,6.23
2019-05-02T18:37:03.037Z,3.47
2019-05-02T18:39:07.589Z,5.73
2019-05-02T18:41:12.098Z,6.53
2019-05-02T18:43:16.215Z,4.97
2019-05-02T18:45:28.540Z,14.53
2019-05-02T18:47:33.499Z,9.43
2019-05-02T18:49:37.754Z,11.40
2019-05-02T18:51:42.355Z,8.17
2019-05-02T18:53:46.482Z,6.07
2019-05-02T18:55:51.873Z,7.37
2019-05-02T18:57:57.049Z,5.83
2019-05-02T19:00:02.049Z,5.27
2019-05-02T19:02:06.408Z,6.30
2019-05-02T19:04:10.396Z,6.97
2019-05-02T19:06:14.617Z,4.10
2019-05-02T19:08:29.078Z,5.43
2019-05-02T19:10:24.987Z,8.47
2019-05-02T19:12:29.095Z,6.90
2019-05-02T19:14:32.999Z,6.17
2019-05-02T19:16:37.210Z,6.97
2019-05-02T19:18:42.525Z,6.67
2019-05-02T19:20:57.479Z,6.07
2019-05-02T19:23:02.829Z,4.70
2019-05-02T19:25:06.855Z,8.27
2019-05-02T19:27:12.921Z,4.93
2019-05-02T19:29:21.331Z,11.23
2019-05-02T19:31:25.316Z,4.90
2019-05-02T19:33:31.723Z,8.00
2019-05-02T19:35:37.556Z,10.00
2019-05-02T19:37:44.612Z,9.53
2019-05-02T19:39:48.775Z,6.90
2019-05-02T19:41:52.733Z,8.37
2019-05-02T19:43:56.735Z,8.63
2019-05-02T19:46:02.221Z,9.00
2019-05-02T19:48:08.228Z,6.60
2019-05-02T19:50:32.261Z,11.20
2019-05-02T19:52:39.293Z,8.27
2019-05-02T19:54:43.499Z,7.70
2019-05-02T19:56:47.676Z,14.73
2019-05-02T19:58:52.122Z,7.30
2019-05-02T20:00:56.740Z,7.93
2019-05-02T20:03:01.780Z,11.20
2019-05-02T20:05:07.425Z,8.53
2019-05-02T20:07:12.358Z,9.70
2019-05-02T20:09:16.556Z,10.03
2019-05-02T20:11:21.927Z,10.90
2019-05-02T20:13:30.597Z,7.00
2019-05-02T20:15:33.389Z,10.20
2019-05-02T20:17:37.391Z,6.93
2019-05-02T20:19:42.923Z,8.67
2019-05-02T20:21:49.194Z,9.93
2019-05-02T20:23:53.405Z,6.97
2019-05-02T20:25:57.306Z,9.13
2019-05-02T20:28:01.958Z,12.10
2019-05-02T20:30:07.629Z,6.87
2019-05-02T20:32:12.653Z,8.57
2019-05-02T20:34:16.917Z,7.13
2019-05-02T20:36:22.636Z,7.67
2019-05-02T20:38:29.270Z,6.80
2019-05-02T20:40:36.514Z,6.63
2019-05-02T20:42:41.894Z,9.10
2019-05-02T20:44:46.267Z,6.87
2019-05-02T20:46:51.617Z,7.43
2019-05-02T20:48:55.918Z,10.27
2019-05-02T20:50:59.928Z,8.77
2019-05-02T20:53:05.804Z,13.63
2019-05-02T20:55:12.139Z,11.27
2019-05-02T20:57:16.561Z,9.60
2019-05-02T20:59:21.834Z,12.67
2019-05-02T21:01:25.998Z,8.50
2019-05-02T21:03:32.637Z,7.83
2019-05-02T21:05:54.909Z,11.33
2019-05-02T21:08:01.873Z,14.50
2019-05-02T21:10:09.589Z,8.15
2019-05-02T21:12:13.471Z,8.03
2019-05-02T21:14:17.683Z,8.23
2019-05-02T21:16:21.941Z,8.37
2019-05-02T21:18:26.005Z,6.80
2019-05-02T21:20:32.535Z,7.47
2019-05-02T21:22:38.343Z,7.93
2019-05-02T21:24:42.428Z,7.03
2019-05-02T21:26:46.430Z,6.73
2019-05-02T21:28:52.164Z,8.40
2019-05-02T21:30:56.389Z,7.83
2019-05-02T21:33:00.288Z,10.13
2019-05-02T21:35:05.540Z,8.93
2019-05-02T21:37:10.651Z,6.40
2019-05-02T21:39:14.516Z,10.70
2019-05-02T21:41:18.585Z,6.63
2019-05-02T21:43:22.484Z,11.37
2019-05-02T21:45:26.356Z,11.57
2019-05-02T21:47:31.885Z,8.67
2019-05-02T21:49:42.956Z,9.17
2019-05-02T21:52:05.179Z,7.30
2019-05-02T21:54:13.340Z,9.10
2019-05-02T21:56:24.710Z,12.20
2019-05-02T21:58:28.815Z,6.93
2019-05-02T22:00:47.256Z,10.37
2019-05-02T22:02:52.346Z,8.10
2019-05-02T22:04:58.847Z,5.87
2019-05-02T22:07:03.070Z,8.70
2019-05-02T22:09:09.398Z,5.93
2019-05-02T22:11:13.439Z,9.27
2019-05-02T22:13:18.902Z,6.80
2019-05-02T22:15:22.983Z,5.33
2019-05-02T22:17:26.880Z,9.23
2019-05-02T22:19:33.000Z,7.90
2019-05-02T22:21:37.255Z,8.07
2019-05-02T22:23:42.587Z,6.77
2019-05-02T22:25:46.806Z,6.80
2019-05-02T22:27:53.898Z,9.90
2019-05-02T22:29:56.354Z,6.97
2019-05-02T22:32:02.492Z,3.47
2019-05-02T22:34:06.532Z,11.77
2019-05-02T22:36:12.271Z,10.13
2019-05-02T22:38:33.978Z,12.30
2019-05-02T22:40:37.874Z,7.83
2019-05-02T22:42:41.798Z,11.30
2019-05-02T22:44:45.691Z,9.60
2019-05-02T22:46:49.681Z,6.03
2019-05-02T22:48:53.580Z,7.93
2019-05-02T22:50:57.448Z,8.03
2019-05-02T22:53:01.356Z,6.33
2019-05-02T22:55:08.352Z,12.07
2019-05-02T22:57:14.769Z,5.03
2019-05-02T22:59:18.736Z,6.50
2019-05-02T23:01:22.597Z,7.20
2019-05-02T23:03:28.073Z,9.17
2019-05-02T23:05:34.361Z,7.63
2019-05-02T23:07:37.776Z,7.60
2019-05-02T23:09:43.485Z,8.10
2019-05-02T23:11:47.168Z,7.00
2019-05-02T23:13:51.771Z,8.67
2019-05-02T23:15:56.757Z,12.60
2019-05-02T23:18:01.692Z,11.03
2019-05-02T23:20:10.033Z,8.43
2019-05-02T23:22:13.891Z,8.50
2019-05-02T23:24:19.648Z,8.93
2019-05-02T23:26:42.249Z,8.40
2019-05-02T23:28:51.746Z,14.30
2019-05-02T23:30:57.734Z,6.37
2019-05-02T23:33:02.302Z,9.03
2019-05-02T23:35:07.485Z,10.23
2019-05-02T23:37:11.977Z,6.30
2019-05-02T23:39:15.968Z,8.47
2019-05-02T23:41:19.872Z,5.03
2019-05-02T23:43:24.771Z,9.67
2019-05-02T23:45:31.585Z,6.60
2019-05-02T23:47:35.584Z,7.63
2019-05-02T23:49:42.715Z,7.27
2019-05-02T23:51:47.783Z,4.90
2019-05-02T23:53:53.000Z,5.10
2019-05-02T23:55:56.913Z,6.67
2019-05-02T23:58:02.877Z,7.57
